Аэропорт: Оренбург-Центральный. Оренбург

ICAO: UWOO

METAR:
2019/01/21 23:00
UWOO 212300Z 13005MPS CAVOK M13/M15 Q1017 R08/490240 NOSIG RMK QFE752/1003
METAR:
2019/01/21 21:21
TAF UWOO 211947Z 2121/2221 16009G14MPS 1500 SN BLSN OVC005 TXM07/2209Z TNM12/2203Z 
      TEMPO 2121/2215 19010G16MPS 0500 +SN BLSN VV002 
     FM221500 28005G10MPS 3100 -SN BR BKN004 OVC007